Time;durP1;ratioP1;P1;durP2;ratioP2;P2;SDS_P1;SDS_P2;PMS_P1;PMS_P2;Temp;Humidity;BMP_temperature;BMP_pressure;BME280_temperature;BME280_humidity;BME280_pressure;Samples;Min_cycle;Max_cycle;Signal;HPM_P1;HPM_P2
2023/04/10 00:00:23;;;;;;;;;;;8.30;73.10;;;;;;5103351;27;88065;-40
2023/04/10 00:02:49;;;;;;;;;;;8.30;73.10;;;;;;5104140;27;90112;-40
2023/04/10 00:05:15;;;;;;;;;;;8.30;73.00;;;;;;5103988;27;89240;-40
2023/04/10 00:07:41;;;;;;;;;;;8.30;73.00;;;;;;5104392;27;87064;-40
2023/04/10 00:10:06;;;;;;;;;;;8.30;73.10;;;;;;5104568;27;87266;-40
2023/04/10 00:12:32;;;;;;;;;;;8.30;73.70;;;;;;5100123;27;89398;-40
2023/04/10 00:14:58;;;;;;;;;;;8.30;73.10;;;;;;5105389;27;87421;-41
2023/04/10 00:17:23;;;;;;;;;;;8.20;73.00;;;;;;5104500;27;86864;-40
2023/04/10 00:19:49;;;;;;;;;;;8.30;73.10;;;;;;5103990;27;86985;-40
2023/04/10 00:22:14;;;;;;;;;;;8.30;73.10;;;;;;5104093;27;88899;-40
2023/04/10 00:24:40;;;;;;;;;;;8.20;73.10;;;;;;5103249;27;90612;-40
2023/04/10 00:27:05;;;;;;;;;;;8.20;73.10;;;;;;5103896;27;87268;-40
2023/04/10 00:29:31;;;;;;;;;;;8.20;73.10;;;;;;5103784;27;89163;-40
2023/04/10 00:31:56;;;;;;;;;;;8.20;73.00;;;;;;5103828;27;87358;-40
2023/04/10 00:34:23;;;;;;;;;;;8.20;73.10;;;;;;5106777;27;87045;-40
2023/04/10 00:36:48;;;;;;;;;;;8.20;73.00;;;;;;5103597;27;89603;-40
2023/04/10 00:39:14;;;;;;;;;;;8.20;73.10;;;;;;5103977;27;87021;-40
2023/04/10 00:41:39;;;;;;;;;;;8.20;73.10;;;;;;5102875;27;90934;-40
2023/04/10 00:44:05;;;;;;;;;;;8.20;73.00;;;;;;5103372;27;89707;-40
2023/04/10 00:46:31;;;;;;;;;;;8.20;73.10;;;;;;5103661;27;87014;-40
2023/04/10 00:48:56;;;;;;;;;;;8.20;73.10;;;;;;5102634;27;88603;-40
2023/04/10 00:51:22;;;;;;;;;;;8.20;73.10;;;;;;5103351;27;90030;-40
2023/04/10 00:53:49;;;;;;;;;;;8.20;73.10;;;;;;5103629;27;87148;-40
2023/04/10 00:56:16;;;;;;;;;;;8.20;73.10;;;;;;5106257;27;87512;-40
2023/04/10 00:58:41;;;;;;;;;;;8.20;73.10;;;;;;5103187;27;89519;-40
2023/04/10 01:01:07;;;;;;;;;;;8.20;73.00;;;;;;5103765;27;87585;-40
2023/04/10 01:03:33;;;;;;;;;;;8.20;73.00;;;;;;5102426;27;88409;-40
2023/04/10 01:06:15;;;;;;;;;;;8.20;73.00;;;;;;5103988;27;86394;-40
2023/04/10 01:08:54;;;;;;;;;;;8.10;73.00;;;;;;5100245;27;87953;-40
2023/04/10 01:11:37;;;;;;;;;;;8.10;73.00;;;;;;5102835;27;89794;-40
2023/04/10 01:14:11;;;;;;;;;;;8.10;73.00;;;;;;5101807;27;88195;-40
2023/04/10 01:16:48;;;;;;;;;;;8.10;73.00;;;;;;5099621;27;90474;-40
2023/04/10 01:19:23;;;;;;;;;;;8.10;72.90;;;;;;5106032;27;89183;-40
2023/04/10 01:21:49;;;;;;;;;;;8.10;73.00;;;;;;5099751;27;88605;-40
2023/04/10 01:24:33;;;;;;;;;;;8.10;73.00;;;;;;5102689;27;88647;-40
2023/04/10 01:27:14;;;;;;;;;;;8.10;73.00;;;;;;5099750;27;87340;-40
2023/04/10 01:29:43;;;;;;;;;;;8.10;73.00;;;;;;5103278;27;87401;-40
2023/04/10 01:32:11;;;;;;;;;;;8.10;73.00;;;;;;5099632;27;88734;-40
2023/04/10 01:34:48;;;;;;;;;;;8.10;73.00;;;;;;5102824;27;87253;-40
2023/04/10 01:37:27;;;;;;;;;;;8.10;73.00;;;;;;5103635;27;87427;-40
2023/04/10 01:39:57;;;;;;;;;;;8.10;73.10;;;;;;5101716;27;90511;-40
2023/04/10 01:42:25;;;;;;;;;;;8.10;73.00;;;;;;5105699;27;87198;-40
2023/04/10 01:44:51;;;;;;;;;;;8.10;72.90;;;;;;5102697;27;89462;-40
2023/04/10 01:47:17;;;;;;;;;;;8.10;73.00;;;;;;5102529;27;87119;-40
2023/04/10 01:49:43;;;;;;;;;;;8.00;73.00;;;;;;5102956;27;87224;-40
2023/04/10 01:52:10;;;;;;;;;;;8.00;73.00;;;;;;5102541;27;89258;-40
2023/04/10 01:54:36;;;;;;;;;;;8.00;73.00;;;;;;5102849;27;87181;-40
2023/04/10 01:57:03;;;;;;;;;;;8.00;73.00;;;;;;5103312;27;87686;-40
2023/04/10 01:59:29;;;;;;;;;;;8.00;73.00;;;;;;5101995;27;89331;-40
2023/04/10 02:01:58;;;;;;;;;;;8.00;73.00;;;;;;5102265;27;87716;-40
2023/04/10 02:04:25;;;;;;;;;;;8.00;73.00;;;;;;5104415;27;87981;-40
2023/04/10 02:06:56;;;;;;;;;;;8.00;73.00;;;;;;5102432;27;87169;-40
2023/04/10 02:09:30;;;;;;;;;;;8.00;73.00;;;;;;5099506;27;88712;-40
2023/04/10 02:11:55;;;;;;;;;;;8.00;73.00;;;;;;5102466;27;89306;-40
2023/04/10 02:14:21;;;;;;;;;;;8.00;73.00;;;;;;5101817;27;87481;-40
2023/04/10 02:16:48;;;;;;;;;;;8.00;73.00;;;;;;5104493;27;88895;-40
2023/04/10 02:19:15;;;;;;;;;;;8.00;73.00;;;;;;5105655;27;88263;-40
2023/04/10 02:21:41;;;;;;;;;;;8.00;73.00;;;;;;5106715;27;86347;-40
2023/04/10 02:24:06;;;;;;;;;;;7.90;73.00;;;;;;5106048;27;88109;-40
2023/04/10 02:26:48;;;;;;;;;;;7.90;72.90;;;;;;5108483;27;88015;-40
2023/04/10 02:29:13;;;;;;;;;;;8.00;72.90;;;;;;5102578;27;88700;-40
2023/04/10 02:31:39;;;;;;;;;;;7.90;72.90;;;;;;5105396;27;89298;-40
2023/04/10 02:34:06;;;;;;;;;;;7.90;72.90;;;;;;5105978;27;87158;-40
2023/04/10 02:36:31;;;;;;;;;;;8.00;73.00;;;;;;5105644;27;88598;-40
2023/04/10 02:38:57;;;;;;;;;;;7.90;73.00;;;;;;5105358;27;89578;-40
2023/04/10 02:41:23;;;;;;;;;;;7.90;72.90;;;;;;5106012;27;87192;-40
2023/04/10 02:43:48;;;;;;;;;;;7.90;72.90;;;;;;5105427;27;88772;-40
2023/04/10 02:46:14;;;;;;;;;;;7.90;72.90;;;;;;5108796;27;88653;-40
2023/04/10 02:48:39;;;;;;;;;;;7.90;72.80;;;;;;5105479;27;88307;-40
2023/04/10 02:51:05;;;;;;;;;;;7.90;72.90;;;;;;5105305;27;89429;-40
2023/04/10 02:53:32;;;;;;;;;;;7.90;72.90;;;;;;5100887;27;88066;-40
2023/04/10 02:55:57;;;;;;;;;;;7.90;72.90;;;;;;5105555;27;89660;-40
2023/04/10 02:58:23;;;;;;;;;;;7.90;72.90;;;;;;5104698;27;89570;-40
2023/04/10 03:00:49;;;;;;;;;;;7.90;72.80;;;;;;5105534;27;87085;-40
2023/04/10 03:03:15;;;;;;;;;;;7.90;72.90;;;;;;5105264;27;88684;-40
2023/04/10 03:05:41;;;;;;;;;;;7.90;72.90;;;;;;5104953;27;89373;-40
2023/04/10 03:08:06;;;;;;;;;;;7.90;72.90;;;;;;5108314;27;87073;-40
2023/04/10 03:10:32;;;;;;;;;;;7.90;72.90;;;;;;5105689;27;88690;-40
2023/04/10 03:12:57;;;;;;;;;;;7.90;72.90;;;;;;5105071;27;87145;-40
2023/04/10 03:15:23;;;;;;;;;;;7.90;72.90;;;;;;5105073;27;88842;-40
2023/04/10 03:17:48;;;;;;;;;;;7.90;72.90;;;;;;5103851;27;90410;-40
2023/04/10 03:20:14;;;;;;;;;;;7.80;72.80;;;;;;5104951;27;87086;-40
2023/04/10 03:22:41;;;;;;;;;;;7.80;72.80;;;;;;5104970;27;87876;-40
2023/04/10 03:25:06;;;;;;;;;;;7.90;72.90;;;;;;5104549;27;87840;-40
2023/04/10 03:27:33;;;;;;;;;;;7.80;72.90;;;;;;5104851;27;87658;-40
2023/04/10 03:29:59;;;;;;;;;;;7.80;72.90;;;;;;5107459;27;88804;-40
2023/04/10 03:32:26;;;;;;;;;;;7.80;72.90;;;;;;5104733;27;87109;-40
2023/04/10 03:34:52;;;;;;;;;;;7.80;72.90;;;;;;5105558;27;88810;-40
2023/04/10 03:37:18;;;;;;;;;;;7.80;72.90;;;;;;5100449;27;88242;-40
2023/04/10 03:39:44;;;;;;;;;;;7.80;72.90;;;;;;5104786;27;87586;-40
2023/04/10 03:42:10;;;;;;;;;;;7.80;72.90;;;;;;5103838;27;88783;-40
2023/04/10 03:44:36;;;;;;;;;;;7.80;72.80;;;;;;5104314;27;89306;-40
2023/04/10 03:47:02;;;;;;;;;;;7.80;72.80;;;;;;5104492;27;87623;-40
2023/04/10 03:49:28;;;;;;;;;;;7.80;72.80;;;;;;5104779;27;88636;-40
2023/04/10 03:51:53;;;;;;;;;;;7.80;72.80;;;;;;5103407;27;89015;-40
2023/04/10 03:54:19;;;;;;;;;;;7.80;72.80;;;;;;5104554;27;88958;-40
2023/04/10 03:56:44;;;;;;;;;;;7.70;72.80;;;;;;5104116;27;89731;-40
2023/04/10 03:59:10;;;;;;;;;;;7.70;72.80;;;;;;5104761;27;86369;-40
2023/04/10 04:01:35;;;;;;;;;;;7.70;72.70;;;;;;5104586;27;87092;-40
2023/04/10 04:04:01;;;;;;;;;;;7.70;72.80;;;;;;5102701;27;91257;-42
2023/04/10 04:06:26;;;;;;;;;;;7.70;72.80;;;;;;5103383;27;88093;-40
2023/04/10 04:08:52;;;;;;;;;;;7.70;72.80;;;;;;5104571;27;89442;-40
2023/04/10 04:11:17;;;;;;;;;;;7.70;72.80;;;;;;5104068;27;89654;-40
2023/04/10 04:13:43;;;;;;;;;;;7.70;72.90;;;;;;5106796;27;87817;-40
2023/04/10 04:16:09;;;;;;;;;;;7.70;72.80;;;;;;5104440;27;88068;-40
2023/04/10 04:18:34;;;;;;;;;;;7.70;72.80;;;;;;5104155;27;87149;-40
2023/04/10 04:21:00;;;;;;;;;;;7.70;72.70;;;;;;5103857;27;88931;-40
2023/04/10 04:23:25;;;;;;;;;;;7.70;72.70;;;;;;5096499;27;86370;-40
2023/04/10 04:25:53;;;;;;;;;;;7.70;72.70;;;;;;5104021;27;87215;-39
2023/04/10 04:28:18;;;;;;;;;;;7.70;72.70;;;;;;5103825;27;88633;-40
2023/04/10 04:30:44;;;;;;;;;;;7.60;72.70;;;;;;5103043;27;90185;-40
2023/04/10 04:33:09;;;;;;;;;;;7.60;72.60;;;;;;5104252;27;87116;-40
2023/04/10 04:35:35;;;;;;;;;;;7.60;72.60;;;;;;5106686;27;87765;-40
2023/04/10 04:38:00;;;;;;;;;;;7.60;72.70;;;;;;5099695;27;87058;-40
2023/04/10 04:40:26;;;;;;;;;;;7.60;72.60;;;;;;5103700;27;88539;-40
2023/04/10 04:42:51;;;;;;;;;;;7.70;72.70;;;;;;5103817;27;90265;-40
2023/04/10 04:45:17;;;;;;;;;;;7.60;72.60;;;;;;5104189;27;87273;-40
2023/04/10 04:47:42;;;;;;;;;;;7.60;72.60;;;;;;5104463;27;88903;-40
2023/04/10 04:50:08;;;;;;;;;;;7.60;72.70;;;;;;5103022;27;89613;-40
2023/04/10 04:52:34;;;;;;;;;;;7.60;72.60;;;;;;5103499;27;87220;-40
2023/04/10 04:54:59;;;;;;;;;;;7.60;72.60;;;;;;5105962;27;88082;-40
2023/04/10 04:57:25;;;;;;;;;;;7.60;72.50;;;;;;5103663;27;87673;-40
2023/04/10 04:59:51;;;;;;;;;;;7.60;72.50;;;;;;5103310;27;87409;-40
2023/04/10 05:02:17;;;;;;;;;;;7.60;72.50;;;;;;5102819;27;89077;-40
2023/04/10 05:04:43;;;;;;;;;;;7.60;72.50;;;;;;5103488;27;87487;-40
2023/04/10 05:07:09;;;;;;;;;;;7.60;72.50;;;;;;5102900;27;89273;-40
2023/04/10 05:09:34;;;;;;;;;;;7.60;72.50;;;;;;5102697;27;89467;-40
2023/04/10 05:12:00;;;;;;;;;;;7.60;72.50;;;;;;5103474;27;86364;-40
2023/04/10 05:14:25;;;;;;;;;;;7.60;72.50;;;;;;5102297;27;87271;-40
2023/04/10 05:16:51;;;;;;;;;;;7.60;72.40;;;;;;5105848;27;89543;-40
2023/04/10 05:19:16;;;;;;;;;;;7.60;72.60;;;;;;5102960;27;88008;-40
2023/04/10 05:21:42;;;;;;;;;;;7.60;72.50;;;;;;5102588;27;89717;-40
2023/04/10 05:24:08;;;;;;;;;;;7.60;72.40;;;;;;5103059;27;87184;-40
2023/04/10 05:26:33;;;;;;;;;;;7.60;72.50;;;;;;5103257;27;88944;-40
2023/04/10 05:28:59;;;;;;;;;;;7.60;72.40;;;;;;5102928;27;89321;-40
2023/04/10 05:31:24;;;;;;;;;;;7.60;72.50;;;;;;5103458;27;87109;-40
2023/04/10 05:33:50;;;;;;;;;;;7.60;72.50;;;;;;5103251;27;88679;-40
2023/04/10 05:36:17;;;;;;;;;;;7.60;72.40;;;;;;5103327;27;87469;-40
2023/04/10 05:38:42;;;;;;;;;;;7.60;72.50;;;;;;5105483;27;87076;-40
2023/04/10 05:41:08;;;;;;;;;;;7.60;73.00;;;;;;5102599;27;88555;-40
2023/04/10 05:43:33;;;;;;;;;;;7.60;72.40;;;;;;5101871;27;88411;-40
2023/04/10 05:45:59;;;;;;;;;;;7.60;72.40;;;;;;5102804;27;89068;-40
2023/04/10 05:48:25;;;;;;;;;;;7.60;72.40;;;;;;5102119;27;89745;-40
2023/04/10 05:50:51;;;;;;;;;;;7.60;72.40;;;;;;5102806;27;87123;-40
2023/04/10 05:53:18;;;;;;;;;;;7.60;72.40;;;;;;5102683;27;88831;-40
2023/04/10 05:55:43;;;;;;;;;;;7.60;72.30;;;;;;5102476;27;89447;-40
2023/04/10 05:58:09;;;;;;;;;;;7.60;72.30;;;;;;5102740;27;87399;-40
2023/04/10 06:00:34;;;;;;;;;;;7.60;72.30;;;;;;5105689;27;87456;-40
2023/04/10 06:03:00;;;;;;;;;;;7.60;72.30;;;;;;5102843;27;87158;-40
2023/04/10 06:05:26;;;;;;;;;;;7.60;72.40;;;;;;5102574;27;87347;-40
2023/04/10 06:07:52;;;;;;;;;;;7.60;72.50;;;;;;5100328;27;90575;-40
2023/04/10 06:10:17;;;;;;;;;;;7.60;72.50;;;;;;5102672;27;87232;-40
2023/04/10 06:12:43;;;;;;;;;;;7.60;72.50;;;;;;5102319;27;88782;-40
2023/04/10 06:15:09;;;;;;;;;;;7.60;72.40;;;;;;5101988;27;89452;-40
2023/04/10 06:17:40;;;;;;;;;;;7.60;72.40;;;;;;5102045;27;87054;-40
2023/04/10 06:20:05;;;;;;;;;;;7.60;72.30;;;;;;5102795;27;87802;-40
2023/04/10 06:22:31;;;;;;;;;;;7.60;72.40;;;;;;5100599;27;88590;-40
2023/04/10 06:24:56;;;;;;;;;;;7.60;72.50;;;;;;5103149;27;88715;-40
2023/04/10 06:27:22;;;;;;;;;;;7.60;72.50;;;;;;5102241;27;89333;-41
2023/04/10 06:29:47;;;;;;;;;;;7.60;72.60;;;;;;5102317;27;87604;-40
2023/04/10 06:32:13;;;;;;;;;;;7.60;72.60;;;;;;5101844;27;88903;-40
2023/04/10 06:34:38;;;;;;;;;;;7.60;72.50;;;;;;5101829;27;89402;-40
2023/04/10 06:37:04;;;;;;;;;;;7.60;72.50;;;;;;5102592;27;87128;-40
2023/04/10 06:39:30;;;;;;;;;;;7.60;72.70;;;;;;5101957;27;88566;-40
2023/04/10 06:41:56;;;;;;;;;;;7.60;72.70;;;;;;5101750;27;89654;-40
2023/04/10 06:44:22;;;;;;;;;;;7.60;72.70;;;;;;5105181;27;87273;-40
2023/04/10 06:46:47;;;;;;;;;;;7.60;72.60;;;;;;5102062;27;88086;-40
2023/04/10 06:49:13;;;;;;;;;;;7.60;72.60;;;;;;5102639;27;86317;-40
2023/04/10 06:51:38;;;;;;;;;;;7.60;72.60;;;;;;5102527;27;87501;-40
2023/04/10 06:54:04;;;;;;;;;;;7.60;72.60;;;;;;5101600;27;89042;-40
2023/04/10 06:56:29;;;;;;;;;;;7.60;72.60;;;;;;5101301;27;87993;-40
2023/04/10 06:58:56;;;;;;;;;;;7.60;72.60;;;;;;5101265;27;89880;-40
2023/04/10 07:01:22;;;;;;;;;;;7.60;72.70;;;;;;5100936;27;89434;-40
2023/04/10 07:03:47;;;;;;;;;;;7.60;72.60;;;;;;5108168;27;87279;-40
2023/04/10 07:06:13;;;;;;;;;;;7.70;72.80;;;;;;5105025;27;89262;-40
2023/04/10 07:08:38;;;;;;;;;;;7.70;72.80;;;;;;5105317;27;87086;-40
2023/04/10 07:11:04;;;;;;;;;;;7.60;72.70;;;;;;5105304;27;88454;-40
2023/04/10 07:13:29;;;;;;;;;;;7.70;72.70;;;;;;5104874;27;88787;-40
2023/04/10 07:15:55;;;;;;;;;;;7.70;72.70;;;;;;5104931;27;87131;-40
2023/04/10 07:18:20;;;;;;;;;;;7.70;72.70;;;;;;5104792;27;89129;-40
2023/04/10 07:20:48;;;;;;;;;;;7.70;72.70;;;;;;5103890;27;90015;-40
2023/04/10 07:23:14;;;;;;;;;;;7.70;72.70;;;;;;5100993;27;87137;-40
2023/04/10 07:25:40;;;;;;;;;;;7.70;72.60;;;;;;5107600;27;88830;-40
2023/04/10 07:28:05;;;;;;;;;;;7.70;72.60;;;;;;5104895;27;87154;-40
2023/04/10 07:30:31;;;;;;;;;;;7.80;72.60;;;;;;5105066;27;88557;-40
2023/04/10 07:32:56;;;;;;;;;;;7.80;72.50;;;;;;5104349;27;89406;-40
2023/04/10 07:35:22;;;;;;;;;;;7.80;72.50;;;;;;5105225;27;87667;-40
2023/04/10 07:37:50;;;;;;;;;;;7.80;72.50;;;;;;5105090;27;89061;-40
2023/04/10 07:40:16;;;;;;;;;;;7.80;72.50;;;;;;5104325;27;89973;-40
2023/04/10 07:42:41;;;;;;;;;;;7.80;72.50;;;;;;5104444;27;87066;-40
2023/04/10 07:45:07;;;;;;;;;;;7.80;72.40;;;;;;5104320;27;88129;-40
2023/04/10 07:47:33;;;;;;;;;;;7.80;72.40;;;;;;5106707;27;91232;-40
2023/04/10 07:49:58;;;;;;;;;;;7.80;72.30;;;;;;5104536;27;87857;-40
2023/04/10 07:52:24;;;;;;;;;;;7.80;72.50;;;;;;5103444;27;89306;-41
2023/04/10 07:54:49;;;;;;;;;;;7.80;72.50;;;;;;5103886;27;87158;-40
2023/04/10 07:57:15;;;;;;;;;;;7.80;72.50;;;;;;5102691;27;90398;-40
2023/04/10 07:59:40;;;;;;;;;;;7.80;72.60;;;;;;5102954;27;88496;-40
2023/04/10 08:02:06;;;;;;;;;;;7.80;72.50;;;;;;5104034;27;86458;-40
2023/04/10 08:04:31;;;;;;;;;;;7.80;72.50;;;;;;5103705;27;88213;-40
2023/04/10 08:06:57;;;;;;;;;;;7.80;72.50;;;;;;5102969;27;89302;-40
2023/04/10 08:09:22;;;;;;;;;;;7.80;72.50;;;;;;5105253;27;88332;-41
2023/04/10 08:11:48;;;;;;;;;;;7.80;72.50;;;;;;5100041;27;89040;-40
2023/04/10 08:14:13;;;;;;;;;;;7.90;72.50;;;;;;5100359;27;87133;-40
2023/04/10 08:16:39;;;;;;;;;;;7.90;72.50;;;;;;5103881;27;88765;-40
2023/04/10 08:19:05;;;;;;;;;;;7.80;72.50;;;;;;5102980;27;89061;-40
2023/04/10 08:21:33;;;;;;;;;;;7.90;72.60;;;;;;5103097;27;87249;-40
2023/04/10 08:23:59;;;;;;;;;;;7.80;72.50;;;;;;5099554;27;88665;-40
2023/04/10 08:26:25;;;;;;;;;;;7.80;72.50;;;;;;5103742;27;88876;-40
2023/04/10 08:28:51;;;;;;;;;;;7.80;72.50;;;;;;5103742;27;87515;-41
2023/04/10 08:31:17;;;;;;;;;;;7.90;72.50;;;;;;5106425;27;87221;-40
2023/04/10 08:33:43;;;;;;;;;;;7.90;72.40;;;;;;5102468;27;88402;-40
2023/04/10 08:36:08;;;;;;;;;;;7.80;72.60;;;;;;5103241;27;89353;-41
2023/04/10 08:38:34;;;;;;;;;;;7.90;72.60;;;;;;5102727;27;89694;-40
2023/04/10 08:40:59;;;;;;;;;;;7.80;72.50;;;;;;5103609;27;87283;-40
2023/04/10 08:43:25;;;;;;;;;;;7.90;72.50;;;;;;5102822;27;88665;-40
2023/04/10 08:45:51;;;;;;;;;;;7.90;72.50;;;;;;5103496;27;89200;-40
2023/04/10 08:48:18;;;;;;;;;;;7.90;72.40;;;;;;5103388;27;87066;-40
2023/04/10 08:50:44;;;;;;;;;;;7.90;72.50;;;;;;5105975;27;88960;-40
2023/04/10 08:53:12;;;;;;;;;;;7.90;72.50;;;;;;5102932;27;87355;-40
2023/04/10 08:55:38;;;;;;;;;;;7.90;72.50;;;;;;5102782;27;89010;-40
2023/04/10 08:58:03;;;;;;;;;;;7.90;72.40;;;;;;5101714;27;89024;-40
2023/04/10 09:00:33;;;;;;;;;;;7.90;72.50;;;;;;5102922;27;87630;-40
2023/04/10 09:02:59;;;;;;;;;;;8.00;72.60;;;;;;5102203;27;89039;-40
2023/04/10 09:05:25;;;;;;;;;;;8.00;72.40;;;;;;5102239;27;89447;-40
2023/04/10 09:07:51;;;;;;;;;;;8.00;72.40;;;;;;5102562;27;87498;-40
2023/04/10 09:10:16;;;;;;;;;;;8.00;72.30;;;;;;5102649;27;88943;-40
2023/04/10 09:12:46;;;;;;;;;;;8.00;72.30;;;;;;5105100;27;89492;-41
2023/04/10 09:15:12;;;;;;;;;;;8.00;72.40;;;;;;5102445;27;88680;-40
2023/04/10 09:17:53;;;;;;;;;;;8.00;72.30;;;;;;5097974;27;89704;-40
2023/04/10 09:20:23;;;;;;;;;;;8.00;72.30;;;;;;5102366;27;87120;-40
2023/04/10 09:22:49;;;;;;;;;;;8.00;72.20;;;;;;5097840;27;88744;-40
2023/04/10 09:25:30;;;;;;;;;;;8.00;72.00;;;;;;5101468;27;89104;-40
2023/04/10 09:28:02;;;;;;;;;;;8.00;72.00;;;;;;5102383;27;87260;-40
2023/04/10 09:30:32;;;;;;;;;;;8.10;72.00;;;;;;5102469;27;88759;-40
2023/04/10 09:32:57;;;;;;;;;;;8.00;71.90;;;;;;5101847;27;89543;-41
2023/04/10 09:35:33;;;;;;;;;;;8.10;71.90;;;;;;5105470;27;87201;-40
2023/04/10 09:37:59;;;;;;;;;;;8.10;71.80;;;;;;5099121;27;89514;-41
2023/04/10 09:40:24;;;;;;;;;;;8.10;71.80;;;;;;5103192;27;86390;-40
2023/04/10 09:42:50;;;;;;;;;;;8.10;71.80;;;;;;5102830;27;87880;-40
2023/04/10 09:45:21;;;;;;;;;;;8.10;71.80;;;;;;5102286;27;89294;-40
2023/04/10 09:48:06;;;;;;;;;;;8.10;71.60;;;;;;5098076;27;88175;-40
2023/04/10 09:50:39;;;;;;;;;;;8.10;71.90;;;;;;5102661;27;89228;-40
2023/04/10 09:53:05;;;;;;;;;;;8.10;71.80;;;;;;5102480;27;89762;-40
2023/04/10 09:55:32;;;;;;;;;;;8.10;71.70;;;;;;5102350;27;87431;-41
2023/04/10 09:57:59;;;;;;;;;;;8.10;71.80;;;;;;5105171;27;88986;-40
2023/04/10 10:00:25;;;;;;;;;;;8.10;71.80;;;;;;5102682;27;87182;-40
2023/04/10 10:02:51;;;;;;;;;;;8.10;71.70;;;;;;5102033;27;89133;-40
2023/04/10 10:05:16;;;;;;;;;;;8.10;71.50;;;;;;5102803;27;87556;-40
2023/04/10 10:07:43;;;;;;;;;;;8.20;71.70;;;;;;5102310;27;87526;-40
2023/04/10 10:10:10;;;;;;;;;;;8.20;71.70;;;;;;5102141;27;88778;-41
2023/04/10 10:12:36;;;;;;;;;;;8.20;71.90;;;;;;5101349;27;90269;-40
2023/04/10 10:15:05;;;;;;;;;;;8.20;72.30;;;;;;5102200;27;87528;-40
2023/04/10 10:17:53;;;;;;;;;;;8.20;71.60;;;;;;5102463;27;87405;-40
2023/04/10 10:20:21;;;;;;;;;;;8.20;71.70;;;;;;5094189;27;89751;-40
2023/04/10 10:22:47;;;;;;;;;;;8.20;71.70;;;;;;5102510;27;88930;-40
2023/04/10 10:25:13;;;;;;;;;;;8.20;71.60;;;;;;5101525;27;88774;-40
2023/04/10 10:27:39;;;;;;;;;;;8.20;71.50;;;;;;5102002;27;87340;-41
2023/04/10 10:30:05;;;;;;;;;;;8.20;71.50;;;;;;5101961;27;88973;-40
2023/04/10 10:32:31;;;;;;;;;;;8.30;71.40;;;;;;5101076;27;89345;-40
2023/04/10 10:34:57;;;;;;;;;;;8.30;71.50;;;;;;5101905;27;88188;-41
2023/04/10 10:37:22;;;;;;;;;;;8.30;71.40;;;;;;5098128;27;89090;-40
2023/04/10 10:39:55;;;;;;;;;;;8.30;71.40;;;;;;5105234;27;87618;-40
2023/04/10 10:42:33;;;;;;;;;;;8.30;71.30;;;;;;5108428;27;87529;-40
2023/04/10 10:45:15;;;;;;;;;;;8.30;71.10;;;;;;5104820;27;89311;-41
2023/04/10 10:47:44;;;;;;;;;;;8.30;71.30;;;;;;5102872;27;87141;-41
2023/04/10 10:50:10;;;;;;;;;;;8.30;71.20;;;;;;5104215;27;90581;-41
2023/04/10 10:52:47;;;;;;;;;;;8.30;71.00;;;;;;5104931;27;89507;-40
2023/04/10 10:55:34;;;;;;;;;;;8.30;71.10;;;;;;5103138;27;87080;-41
2023/04/10 10:58:01;;;;;;;;;;;8.30;71.20;;;;;;5102531;27;88079;-41
2023/04/10 11:00:47;;;;;;;;;;;8.30;71.00;;;;;;5104655;27;89182;-41
2023/04/10 11:03:12;;;;;;;;;;;8.30;71.00;;;;;;5095055;27;90388;-41
2023/04/10 11:05:51;;;;;;;;;;;8.40;71.00;;;;;;5104451;27;89396;-40
2023/04/10 11:08:16;;;;;;;;;;;8.40;71.00;;;;;;5101620;27;87054;-40
2023/04/10 11:10:58;;;;;;;;;;;8.40;70.90;;;;;;5105325;27;87345;-41
2023/04/10 11:13:24;;;;;;;;;;;8.40;71.60;;;;;;5104207;27;89399;-41
2023/04/10 11:15:50;;;;;;;;;;;8.40;71.00;;;;;;5105330;27;87170;-41
2023/04/10 11:18:16;;;;;;;;;;;8.40;70.90;;;;;;5105218;27;89096;-41
2023/04/10 11:21:00;;;;;;;;;;;8.40;71.00;;;;;;5105380;27;89174;-41
2023/04/10 11:23:26;;;;;;;;;;;8.40;71.00;;;;;;5102008;27;87043;-41
2023/04/10 11:25:52;;;;;;;;;;;8.40;71.10;;;;;;5107431;27;88592;-41
2023/04/10 11:28:37;;;;;;;;;;;8.50;71.10;;;;;;5104137;27;88154;-41
2023/04/10 11:31:14;;;;;;;;;;;8.50;71.30;;;;;;5102769;27;90192;-41
2023/04/10 11:33:40;;;;;;;;;;;8.50;71.10;;;;;;5100268;27;89200;-41
2023/04/10 11:36:06;;;;;;;;;;;8.50;71.00;;;;;;5105623;27;87217;-41
2023/04/10 11:38:31;;;;;;;;;;;8.50;71.00;;;;;;5105069;27;88411;-41
2023/04/10 11:40:58;;;;;;;;;;;8.50;70.90;;;;;;5104463;27;89125;-41
2023/04/10 11:43:24;;;;;;;;;;;8.50;71.10;;;;;;5104853;27;87222;-41
2023/04/10 11:45:50;;;;;;;;;;;8.60;71.20;;;;;;5104626;27;88458;-41
2023/04/10 11:48:16;;;;;;;;;;;8.60;71.10;;;;;;5106769;27;89087;-40
2023/04/10 11:50:42;;;;;;;;;;;8.60;71.10;;;;;;5104437;27;88959;-41
2023/04/10 11:53:20;;;;;;;;;;;8.60;70.80;;;;;;5103527;27;89138;-41
2023/04/10 11:55:46;;;;;;;;;;;8.60;70.80;;;;;;5104496;27;87193;-41
2023/04/10 11:58:27;;;;;;;;;;;8.60;70.80;;;;;;5104281;27;88773;-41
2023/04/10 12:00:56;;;;;;;;;;;8.60;70.90;;;;;;5103761;27;88012;-41
2023/04/10 12:03:54;;;;;;;;;;;8.60;71.00;;;;;;5100009;27;87061;-41
2023/04/10 12:06:19;;;;;;;;;;;8.60;70.90;;;;;;5069158;27;87323;-41
2023/04/10 12:08:49;;;;;;;;;;;8.60;70.90;;;;;;5103557;27;89473;-41
2023/04/10 12:11:22;;;;;;;;;;;8.60;70.90;;;;;;5107751;27;86800;-41
2023/04/10 12:13:52;;;;;;;;;;;8.60;71.10;;;;;;5103860;27;87856;-41
2023/04/10 12:16:17;;;;;;;;;;;8.60;71.10;;;;;;5103282;27;87156;-41
2023/04/10 12:18:46;;;;;;;;;;;8.60;71.10;;;;;;5103503;27;89013;-41
2023/04/10 12:21:11;;;;;;;;;;;8.60;71.10;;;;;;5103307;27;89594;-41
2023/04/10 12:23:38;;;;;;;;;;;8.60;71.20;;;;;;5103944;27;87472;-41
2023/04/10 12:26:08;;;;;;;;;;;8.60;71.10;;;;;;5103634;27;88666;-41
2023/04/10 12:28:34;;;;;;;;;;;8.60;71.10;;;;;;5103646;27;89442;-41
2023/04/10 12:31:00;;;;;;;;;;;8.60;71.20;;;;;;5104042;27;87204;-41
2023/04/10 12:33:25;;;;;;;;;;;8.60;70.90;;;;;;5106414;27;86958;-41
2023/04/10 12:35:51;;;;;;;;;;;8.60;71.00;;;;;;5103722;27;86387;-41
2023/04/10 12:38:35;;;;;;;;;;;8.70;71.10;;;;;;5102734;27;88210;-41
2023/04/10 12:41:01;;;;;;;;;;;8.70;70.90;;;;;;5099378;27;89465;-41
2023/04/10 12:43:34;;;;;;;;;;;8.70;71.10;;;;;;5102250;27;88085;-41
2023/04/10 12:46:00;;;;;;;;;;;8.70;71.00;;;;;;5099339;27;89479;-41
2023/04/10 12:48:25;;;;;;;;;;;8.70;71.10;;;;;;5102968;27;88115;-41
2023/04/10 12:50:51;;;;;;;;;;;8.70;71.10;;;;;;5101507;27;87254;-41
2023/04/10 12:53:16;;;;;;;;;;;8.70;71.10;;;;;;5102904;27;88621;-41
2023/04/10 12:55:57;;;;;;;;;;;8.70;71.20;;;;;;5105244;27;87818;-41
2023/04/10 12:58:26;;;;;;;;;;;8.60;71.10;;;;;;5103009;27;87622;-41
2023/04/10 13:00:56;;;;;;;;;;;8.60;71.20;;;;;;5101899;27;87771;-41
2023/04/10 13:03:21;;;;;;;;;;;8.70;71.40;;;;;;5103039;27;87225;-41
2023/04/10 13:05:47;;;;;;;;;;;8.60;71.40;;;;;;5102730;27;88571;-41
2023/04/10 13:08:13;;;;;;;;;;;8.60;71.60;;;;;;5101720;27;90555;-41
2023/04/10 13:10:39;;;;;;;;;;;8.60;71.60;;;;;;5102755;27;87158;-41
2023/04/10 13:13:05;;;;;;;;;;;8.60;71.70;;;;;;5102660;27;88650;-41
2023/04/10 13:15:33;;;;;;;;;;;8.70;72.30;;;;;;5105360;27;89010;-41
2023/04/10 13:17:59;;;;;;;;;;;8.70;71.70;;;;;;5102713;27;88503;-41
2023/04/10 13:20:25;;;;;;;;;;;8.70;71.80;;;;;;5102469;27;88748;-41
2023/04/10 13:22:50;;;;;;;;;;;8.70;72.00;;;;;;5103382;27;87409;-41
2023/04/10 13:25:16;;;;;;;;;;;8.70;72.00;;;;;;5103303;27;88681;-41
2023/04/10 13:27:41;;;;;;;;;;;8.70;71.90;;;;;;5102170;27;89672;-41
2023/04/10 13:30:07;;;;;;;;;;;8.70;72.00;;;;;;5103348;27;87330;-41
2023/04/10 13:32:32;;;;;;;;;;;8.70;71.90;;;;;;5102502;27;88027;-41
2023/04/10 13:34:58;;;;;;;;;;;8.70;71.90;;;;;;5102864;27;90233;-41
2023/04/10 13:37:25;;;;;;;;;;;8.70;72.00;;;;;;5105578;27;87391;-41
2023/04/10 13:39:51;;;;;;;;;;;8.70;72.00;;;;;;5102459;27;89203;-41
2023/04/10 13:42:16;;;;;;;;;;;8.70;71.90;;;;;;5103090;27;87086;-41
2023/04/10 13:44:42;;;;;;;;;;;8.70;71.90;;;;;;5102840;27;88908;-41
2023/04/10 13:47:07;;;;;;;;;;;8.70;72.00;;;;;;5102476;27;89740;-41
2023/04/10 13:49:33;;;;;;;;;;;8.70;72.60;;;;;;5103989;27;86310;-41
2023/04/10 13:51:59;;;;;;;;;;;8.70;72.20;;;;;;5103037;27;88076;-41
2023/04/10 13:54:25;;;;;;;;;;;8.70;72.20;;;;;;5102332;27;89484;-41
2023/04/10 13:56:53;;;;;;;;;;;8.70;72.20;;;;;;5101967;27;88104;-41
2023/04/10 13:59:19;;;;;;;;;;;8.70;72.20;;;;;;5105419;27;89752;-41
2023/04/10 14:01:44;;;;;;;;;;;8.80;72.10;;;;;;5102604;27;87118;-41
2023/04/10 14:04:10;;;;;;;;;;;8.80;72.00;;;;;;5103049;27;88757;-41
2023/04/10 14:06:35;;;;;;;;;;;8.80;71.90;;;;;;5102825;27;87465;-41
2023/04/10 14:09:01;;;;;;;;;;;8.80;71.90;;;;;;5102849;27;87097;-41
2023/04/10 14:11:26;;;;;;;;;;;8.80;72.50;;;;;;5102619;27;89316;-41
2023/04/10 14:13:52;;;;;;;;;;;8.90;71.70;;;;;;5105690;27;88574;-41
2023/04/10 14:16:17;;;;;;;;;;;8.90;71.70;;;;;;5106258;27;87155;-41
2023/04/10 14:18:43;;;;;;;;;;;8.90;71.80;;;;;;5106764;27;87881;-40
2023/04/10 14:21:08;;;;;;;;;;;8.90;71.70;;;;;;5108414;27;89128;-41
2023/04/10 14:23:34;;;;;;;;;;;8.90;71.70;;;;;;5105639;27;89600;-40
2023/04/10 14:26:00;;;;;;;;;;;9.00;71.60;;;;;;5105578;27;89317;-41
2023/04/10 14:28:25;;;;;;;;;;;9.00;71.40;;;;;;5105987;27;87704;-41
2023/04/10 14:30:51;;;;;;;;;;;9.00;71.40;;;;;;5105905;27;87859;-41